Time;durP1;ratioP1;P1;durP2;ratioP2;P2;SDS_P1;SDS_P2;PMS_P1;PMS_P2;Temp;Humidity;BMP_temperature;BMP_pressure;BME280_temperature;BME280_humidity;BME280_pressure;Samples;Min_cycle;Max_cycle;Signal;HPM_P1;HPM_P2
2022/08/01 00:01:03;;;;;;;10.20;7.45;;;19.90;99.90;;;;;;5132513;27;20468;-68
2022/08/01 00:03:28;;;;;;;10.18;7.38;;;20.00;99.90;;;;;;5132173;27;20936;-68
2022/08/01 00:05:54;;;;;;;10.02;7.07;;;20.00;99.90;;;;;;5113844;27;20544;-68
2022/08/01 00:08:19;;;;;;;9.05;7.22;;;20.30;99.90;;;;;;5131411;27;20027;-68
2022/08/01 00:10:45;;;;;;;13.10;7.68;;;19.90;99.90;;;;;;5131825;27;20510;-68
2022/08/01 00:13:11;;;;;;;7.78;6.97;;;19.90;99.90;;;;;;5131818;27;20027;-69
2022/08/01 00:15:36;;;;;;;7.38;5.88;;;19.90;99.90;;;;;;5132043;27;20020;-68
2022/08/01 00:18:02;;;;;;;9.50;7.05;;;19.70;99.90;;;;;;5132271;27;20498;-68
2022/08/01 00:20:27;;;;;;;8.43;7.63;;;20.00;99.90;;;;;;5113179;27;20039;-68
2022/08/01 00:22:53;;;;;;;7.55;6.75;;;20.00;99.90;;;;;;5131530;27;20034;-68
2022/08/01 00:25:18;;;;;;;9.18;7.80;;;19.90;99.90;;;;;;5131614;27;20027;-68
2022/08/01 00:27:44;;;;;;;13.25;8.70;;;19.80;99.90;;;;;;5131848;27;20056;-68
2022/08/01 00:30:10;;;;;;;10.65;8.43;;;20.70;99.90;;;;;;5131531;27;20030;-68
2022/08/01 00:32:35;;;;;;;11.35;10.07;;;19.90;99.90;;;;;;5131518;27;20031;-68
2022/08/01 00:35:01;;;;;;;11.70;10.40;;;19.90;99.90;;;;;;5131919;27;20031;-68
2022/08/01 00:37:26;;;;;;;10.60;9.48;;;19.90;99.90;;;;;;5130926;27;20087;-68
2022/08/01 00:39:52;;;;;;;12.80;11.02;;;19.70;99.90;;;;;;5131656;27;20576;-68
2022/08/01 00:42:17;;;;;;;12.13;10.85;;;19.80;99.90;;;;;;5130372;27;20079;-68
2022/08/01 00:44:43;;;;;;;14.98;11.60;;;20.20;99.90;;;;;;5131221;27;20023;-68
2022/08/01 00:47:09;;;;;;;13.48;11.88;;;19.80;99.90;;;;;;5130883;27;20031;-68
2022/08/01 00:49:35;;;;;;;13.93;12.45;;;19.60;99.90;;;;;;5131189;27;20388;-68
2022/08/01 00:52:02;;;;;;;13.88;12.35;;;19.80;99.90;;;;;;5131084;27;20046;-68
2022/08/01 00:54:28;;;;;;;14.38;12.57;;;19.80;99.90;;;;;;5131044;27;20064;-68
2022/08/01 00:56:54;;;;;;;16.40;13.05;;;19.80;99.90;;;;;;5131199;27;20031;-68
2022/08/01 00:59:22;;;;;;;15.90;14.20;;;19.80;99.90;;;;;;5131116;27;20406;-68
2022/08/01 01:01:48;;;;;;;15.30;13.07;;;19.50;99.90;;;;;;5131076;27;20046;-68
2022/08/01 01:04:14;;;;;;;14.90;13.43;;;19.70;99.90;;;;;;5130973;27;20105;-68
2022/08/01 01:06:45;;;;;;;17.67;13.10;;;19.80;99.90;;;;;;5130673;27;20114;-68
2022/08/01 01:09:23;;;;;;;14.98;13.40;;;19.70;99.90;;;;;;5130763;27;20023;-68
2022/08/01 01:11:56;;;;;;;16.92;13.45;;;20.60;99.90;;;;;;5131094;27;20030;-68
2022/08/01 01:14:45;;;;;;;16.83;13.88;;;19.80;99.90;;;;;;5130859;27;20078;-68
2022/08/01 01:17:14;;;;;;;14.50;12.77;;;19.70;99.90;;;;;;5112565;27;20031;-68
2022/08/01 01:19:47;;;;;;;13.05;11.45;;;19.80;99.90;;;;;;5129969;27;20475;-68
2022/08/01 01:22:25;;;;;;;14.35;12.85;;;19.70;99.90;;;;;;5130670;27;20521;-68
2022/08/01 01:25:26;;;;;;;13.77;11.07;;;19.70;99.90;;;;;;5130708;27;20348;-68
2022/08/01 01:28:16;;;;;;;12.65;11.32;;;19.70;99.90;;;;;;5130496;27;20106;-68
2022/08/01 01:30:46;;;;;;;12.50;9.98;;;19.70;99.90;;;;;;5081851;27;20106;-68
2022/08/01 01:33:13;;;;;;;14.50;11.18;;;19.80;99.90;;;;;;5130813;28;20050;-68
2022/08/01 01:35:46;;;;;;;13.85;10.23;;;19.50;99.90;;;;;;5130128;28;20019;-68
2022/08/01 01:38:21;;;;;;;12.98;8.93;;;19.80;99.90;;;;;;5130749;28;20020;-68
2022/08/01 01:40:48;;;;;;;14.60;9.50;;;19.70;99.90;;;;;;5130370;28;20064;-68
2022/08/01 01:43:15;;;;;;;13.93;9.50;;;19.60;99.90;;;;;;5130727;28;20023;-68
2022/08/01 01:45:41;;;;;;;13.43;9.10;;;19.70;99.90;;;;;;5130444;28;20025;-68
2022/08/01 01:48:12;;;;;;;12.63;9.63;;;19.50;99.90;;;;;;5130936;28;20049;-68
2022/08/01 01:50:39;;;;;;;15.98;11.00;;;19.70;99.90;;;;;;5130137;28;20031;-68
2022/08/01 01:53:10;;;;;;;12.30;9.32;;;19.70;99.90;;;;;;5131328;27;20059;-69
2022/08/01 01:55:38;;;;;;;14.48;10.00;;;19.70;99.90;;;;;;5134918;27;20054;-68
2022/08/01 01:58:06;;;;;;;14.68;9.27;;;19.60;99.90;;;;;;5134937;27;20050;-69
2022/08/01 02:00:33;;;;;;;16.65;10.43;;;19.60;99.90;;;;;;5116107;27;20027;-68
2022/08/01 02:03:02;;;;;;;14.30;9.70;;;19.60;99.90;;;;;;5134394;27;20016;-68
2022/08/01 02:05:28;;;;;;;13.60;9.90;;;19.70;99.90;;;;;;5134407;27;20048;-68
2022/08/01 02:07:55;;;;;;;13.85;9.15;;;19.60;99.90;;;;;;5134461;27;20031;-69
2022/08/01 02:10:22;;;;;;;11.55;8.02;;;19.60;99.90;;;;;;5134453;27;20022;-69
2022/08/01 02:12:50;;;;;;;15.52;8.98;;;19.60;99.90;;;;;;5134424;27;20026;-68
2022/08/01 02:15:17;;;;;;;14.38;8.07;;;19.50;99.90;;;;;;5134284;27;20136;-68
2022/08/01 02:17:46;;;;;;;14.35;8.55;;;19.60;99.90;;;;;;5133898;27;20023;-68
2022/08/01 02:20:13;;;;;;;12.95;8.77;;;19.50;99.90;;;;;;5133821;27;20171;-68
2022/08/01 02:22:51;;;;;;;15.70;8.50;;;19.50;99.90;;;;;;5134170;27;20027;-68
2022/08/01 02:25:24;;;;;;;14.90;9.27;;;19.50;99.90;;;;;;5134087;27;20104;-69
2022/08/01 02:28:03;;;;;;;13.20;8.30;;;19.60;99.90;;;;;;5134209;27;20026;-68
2022/08/01 02:30:38;;;;;;;12.82;7.38;;;19.50;99.90;;;;;;5133764;27;20028;-68
2022/08/01 02:33:14;;;;;;;16.38;7.60;;;19.50;99.90;;;;;;5120114;27;20019;-68
2022/08/01 02:35:43;;;;;;;10.65;7.45;;;19.50;99.90;;;;;;5134009;27;20023;-68
2022/08/01 02:38:11;;;;;;;11.50;7.18;;;19.80;99.90;;;;;;5134310;27;20044;-68
2022/08/01 02:40:40;;;;;;;9.32;6.40;;;19.40;99.90;;;;;;5134133;27;20103;-68
2022/08/01 02:43:08;;;;;;;11.20;7.03;;;19.30;99.90;;;;;;5133870;27;20494;-69
2022/08/01 02:45:37;;;;;;;9.27;6.22;;;19.30;99.90;;;;;;5133557;27;20019;-68
2022/08/01 02:48:10;;;;;;;10.75;7.05;;;20.10;99.90;;;;;;5133395;27;20030;-68
2022/08/01 02:50:36;;;;;;;10.20;7.95;;;19.30;99.90;;;;;;5133777;27;20023;-68
2022/08/01 02:53:03;;;;;;;11.50;8.23;;;19.50;99.90;;;;;;5133831;27;20019;-68
2022/08/01 02:55:31;;;;;;;10.52;6.25;;;19.30;99.90;;;;;;5133541;27;20030;-68
2022/08/01 02:57:57;;;;;;;8.40;6.35;;;19.60;99.90;;;;;;5133516;27;20091;-68
2022/08/01 03:00:24;;;;;;;11.00;7.25;;;19.40;99.90;;;;;;5133438;27;20034;-69
2022/08/01 03:02:54;;;;;;;9.52;6.82;;;19.30;99.90;;;;;;5132908;27;20472;-68
2022/08/01 03:05:21;;;;;;;17.15;7.88;;;19.30;99.90;;;;;;5126357;27;20034;-68
2022/08/01 03:07:47;;;;;;;12.82;7.80;;;20.10;99.90;;;;;;5125481;27;20038;-68
2022/08/01 03:10:15;;;;;;;12.07;7.95;;;19.10;99.90;;;;;;5132984;27;20023;-69
2022/08/01 03:12:42;;;;;;;9.30;7.38;;;20.90;99.90;;;;;;5133424;27;20467;-68
2022/08/01 03:15:10;;;;;;;11.68;7.82;;;19.30;99.90;;;;;;5132445;27;20030;-68
2022/08/01 03:17:36;;;;;;;10.75;8.52;;;19.00;99.90;;;;;;5131610;27;20018;-68
2022/08/01 03:20:04;;;;;;;10.25;7.45;;;19.20;99.90;;;;;;5132598;27;20051;-68
2022/08/01 03:22:31;;;;;;;11.60;7.35;;;19.30;99.90;;;;;;5132427;27;20050;-68
2022/08/01 03:24:59;;;;;;;9.48;7.03;;;19.20;99.90;;;;;;5133016;27;20102;-69
2022/08/01 03:27:25;;;;;;;11.02;7.72;;;19.30;99.90;;;;;;5132836;27;20023;-69
2022/08/01 03:29:51;;;;;;;11.75;8.07;;;19.30;99.90;;;;;;5132955;27;20344;-68
2022/08/01 03:32:19;;;;;;;10.82;7.63;;;19.40;99.90;;;;;;5132116;27;20164;-68
2022/08/01 03:34:46;;;;;;;10.23;6.97;;;19.30;99.90;;;;;;5132844;27;20042;-69
2022/08/01 03:37:19;;;;;;;10.35;7.88;;;19.30;99.90;;;;;;5132690;27;20020;-68
2022/08/01 03:39:48;;;;;;;9.27;7.45;;;19.30;99.90;;;;;;5132633;27;20022;-68
2022/08/01 03:42:20;;;;;;;10.38;7.70;;;19.20;99.90;;;;;;5132426;27;20122;-68
2022/08/01 03:44:56;;;;;;;11.52;8.13;;;19.30;99.90;;;;;;5131957;27;20076;-68
2022/08/01 03:47:25;;;;;;;10.38;7.45;;;19.20;99.90;;;;;;5114184;27;20395;-68
2022/08/01 03:49:53;;;;;;;10.30;7.53;;;19.20;99.90;;;;;;5114148;27;20482;-68
2022/08/01 03:52:19;;;;;;;10.90;8.55;;;19.20;99.90;;;;;;5132512;27;20027;-68
2022/08/01 03:54:48;;;;;;;10.55;7.55;;;19.20;99.90;;;;;;5132402;27;20012;-69
2022/08/01 03:57:15;;;;;;;10.25;7.22;;;19.20;99.90;;;;;;5132243;27;20042;-69
2022/08/01 03:59:42;;;;;;;10.77;7.65;;;19.20;99.90;;;;;;5131735;27;20479;-68
2022/08/01 04:02:08;;;;;;;9.52;7.60;;;19.20;99.90;;;;;;5132363;27;20055;-68
2022/08/01 04:04:34;;;;;;;11.10;8.55;;;19.20;99.90;;;;;;5132102;27;20054;-68
2022/08/01 04:07:03;;;;;;;13.98;9.07;;;19.10;99.90;;;;;;5132336;27;20055;-70
2022/08/01 04:09:31;;;;;;;12.20;9.25;;;19.20;99.90;;;;;;5132383;27;20215;-69
2022/08/01 04:11:57;;;;;;;12.70;8.68;;;19.30;99.90;;;;;;5131997;27;20102;-69
2022/08/01 04:14:23;;;;;;;13.15;7.32;;;19.30;99.90;;;;;;5131609;27;20030;-69
2022/08/01 04:16:49;;;;;;;12.77;8.75;;;19.30;99.90;;;;;;5131753;27;20027;-69
2022/08/01 04:19:14;;;;;;;10.50;7.68;;;19.30;99.90;;;;;;5131911;27;20027;-69
2022/08/01 04:21:40;;;;;;;10.07;7.68;;;19.20;99.90;;;;;;5131540;27;20134;-69
2022/08/01 04:24:13;;;;;;;9.25;7.40;;;19.40;99.90;;;;;;5132160;27;20042;-69
2022/08/01 04:26:41;;;;;;;9.10;7.13;;;19.30;99.90;;;;;;5113577;27;20029;-68
2022/08/01 04:29:07;;;;;;;9.27;7.22;;;19.20;99.90;;;;;;5131248;27;20513;-69
2022/08/01 04:31:35;;;;;;;9.27;8.18;;;19.20;99.90;;;;;;5121903;27;20062;-68
2022/08/01 04:34:02;;;;;;;9.18;6.78;;;19.20;99.90;;;;;;5130640;27;20484;-69
2022/08/01 04:36:30;;;;;;;10.70;8.23;;;19.20;99.90;;;;;;5109471;27;20051;-67
2022/08/01 04:38:59;;;;;;;11.60;7.88;;;19.20;99.90;;;;;;5130595;27;20106;-67
2022/08/01 04:41:25;;;;;;;11.68;8.20;;;20.30;99.90;;;;;;5127981;27;20491;-68
2022/08/01 04:43:52;;;;;;;9.70;7.82;;;19.20;99.90;;;;;;5129689;27;20023;-68
2022/08/01 04:46:18;;;;;;;9.88;6.90;;;19.20;99.90;;;;;;5130628;27;20027;-68
2022/08/01 04:48:45;;;;;;;9.43;7.38;;;19.30;99.90;;;;;;5124775;27;20046;-68
2022/08/01 04:51:13;;;;;;;12.10;8.10;;;19.30;99.90;;;;;;5130857;27;20087;-68
2022/08/01 04:53:38;;;;;;;10.93;9.15;;;19.20;99.90;;;;;;5130788;27;20011;-68
2022/08/01 04:56:04;;;;;;;10.13;7.97;;;19.40;99.90;;;;;;5129384;27;20520;-68
2022/08/01 04:58:29;;;;;;;9.63;8.52;;;19.40;99.90;;;;;;5111643;27;20472;-68
2022/08/01 05:00:55;;;;;;;10.70;8.40;;;19.50;99.90;;;;;;5128666;27;20026;-68
2022/08/01 05:03:20;;;;;;;9.68;8.13;;;19.40;99.90;;;;;;5130943;27;20019;-68
2022/08/01 05:05:46;;;;;;;10.43;7.00;;;19.40;99.90;;;;;;5120765;27;20392;-68
2022/08/01 05:08:12;;;;;;;9.15;8.15;;;;;;;;;;5115426;27;20023;-68
2022/08/01 05:10:38;;;;;;;9.75;6.63;;;19.50;99.90;;;;;;5112303;27;20028;-68
2022/08/01 05:13:03;;;;;;;10.55;8.10;;;19.30;99.90;;;;;;5130323;27;20027;-68
2022/08/01 05:15:29;;;;;;;9.32;6.93;;;19.40;99.90;;;;;;5130079;27;20057;-68
2022/08/01 05:17:56;;;;;;;8.02;6.93;;;19.40;99.90;;;;;;5130514;27;20510;-68
2022/08/01 05:20:21;;;;;;;11.00;7.75;;;19.40;99.90;;;;;;5129996;27;20051;-69
2022/08/01 05:22:47;;;;;;;10.80;7.00;;;19.40;99.90;;;;;;5130888;27;20039;-69
2022/08/01 05:25:13;;;;;;;6.30;5.32;;;19.40;99.90;;;;;;5128501;27;20027;-69
2022/08/01 05:27:40;;;;;;;9.77;7.57;;;19.50;99.90;;;;;;5129329;27;20059;-69
2022/08/01 05:30:07;;;;;;;7.78;6.05;;;19.50;99.90;;;;;;5109152;27;20019;-69
2022/08/01 05:32:33;;;;;;;7.53;6.45;;;19.50;99.90;;;;;;5109947;28;20110;-70
2022/08/01 05:34:59;;;;;;;7.22;6.30;;;19.50;99.90;;;;;;5128966;28;20102;-68
2022/08/01 05:37:25;;;;;;;8.70;5.43;;;19.60;99.90;;;;;;5130152;28;20035;-69
2022/08/01 05:39:50;;;;;;;8.27;6.10;;;20.30;99.90;;;;;;5130199;28;20027;-69
2022/08/01 05:42:16;;;;;;;6.80;5.78;;;19.70;99.90;;;;;;5109066;28;20046;-69
2022/08/01 05:44:41;;;;;;;11.27;5.97;;;19.80;99.90;;;;;;5126020;28;20023;-69
2022/08/01 05:47:07;;;;;;;7.00;5.38;;;19.80;99.90;;;;;;5130676;28;20084;-69
2022/08/01 05:49:32;;;;;;;7.22;4.50;;;19.90;99.90;;;;;;5130195;28;20027;-69
2022/08/01 05:51:58;;;;;;;5.88;5.05;;;19.90;99.90;;;;;;5127965;28;20043;-69
2022/08/01 05:54:24;;;;;;;5.50;4.85;;;;;;;;;;5119289;28;20023;-69
2022/08/01 05:56:50;;;;;;;5.68;4.70;;;20.00;99.90;;;;;;5117950;28;20409;-69
2022/08/01 05:59:15;;;;;;;6.10;5.50;;;19.90;99.90;;;;;;5127887;28;20076;-69
2022/08/01 06:01:41;;;;;;;6.55;5.68;;;19.90;99.90;;;;;;5127597;28;20093;-69
2022/08/01 06:04:06;;;;;;;5.18;4.47;;;20.00;99.90;;;;;;5127919;28;20106;-70
2022/08/01 06:06:32;;;;;;;3.28;2.67;;;19.90;99.90;;;;;;5123436;28;20027;-69
2022/08/01 06:08:58;;;;;;;3.08;2.78;;;21.00;99.90;;;;;;5128208;28;20511;-70
2022/08/01 06:11:23;;;;;;;2.63;2.38;;;19.60;99.90;;;;;;5129393;28;20023;-70
2022/08/01 06:13:49;;;;;;;3.00;2.45;;;19.40;99.90;;;;;;5125705;28;20043;-71
2022/08/01 06:16:16;;;;;;;2.97;2.35;;;19.30;99.90;;;;;;5120839;28;20046;-70
2022/08/01 06:18:41;;;;;;;2.53;1.88;;;19.30;99.90;;;;;;5111693;28;20015;-70
2022/08/01 06:21:07;;;;;;;2.45;1.63;;;19.20;99.90;;;;;;5128591;28;20398;-70
2022/08/01 06:23:33;;;;;;;2.78;2.08;;;20.40;99.90;;;;;;5123982;28;20379;-70
2022/08/01 06:25:58;;;;;;;4.05;1.70;;;19.40;99.90;;;;;;5125105;28;20034;-70
2022/08/01 06:28:24;;;;;;;2.20;1.70;;;19.90;99.90;;;;;;5123297;28;20540;-70
2022/08/01 06:30:50;;;;;;;2.40;1.40;;;19.30;99.90;;;;;;5122885;28;20018;-70
2022/08/01 06:33:16;;;;;;;2.13;1.92;;;19.60;99.90;;;;;;5130069;28;20030;-69
2022/08/01 06:35:41;;;;;;;1.35;1.08;;;19.80;99.90;;;;;;5129002;28;20367;-70
2022/08/01 06:38:07;;;;;;;1.45;1.20;;;19.80;99.90;;;;;;5129639;28;20357;-70
2022/08/01 06:40:33;;;;;;;1.50;1.08;;;21.20;99.90;;;;;;5130478;27;20356;-70
2022/08/01 06:42:58;;;;;;;1.75;1.00;;;20.00;99.90;;;;;;5134080;27;20046;-70
2022/08/01 06:45:25;;;;;;;2.28;0.85;;;19.90;99.90;;;;;;5115387;27;20027;-70
2022/08/01 06:47:51;;;;;;;1.13;1.02;;;20.20;99.90;;;;;;5133690;27;20030;-70
2022/08/01 06:50:17;;;;;;;1.17;0.70;;;20.70;99.90;;;;;;5133699;27;20028;-70
2022/08/01 06:52:43;;;;;;;1.67;0.98;;;20.10;99.90;;;;;;5133582;27;20095;-70
2022/08/01 06:55:09;;;;;;;1.98;0.90;;;19.90;99.90;;;;;;5133394;27;20063;-70
2022/08/01 06:57:35;;;;;;;1.00;0.80;;;19.80;99.90;;;;;;5133547;27;20126;-70
2022/08/01 07:00:10;;;;;;;1.30;0.80;;;19.70;99.90;;;;;;5123214;27;20102;-70
2022/08/01 07:02:36;;;;;;;0.98;0.73;;;19.50;99.90;;;;;;5122440;27;20035;-70
2022/08/01 07:05:03;;;;;;;1.05;0.65;;;19.70;99.90;;;;;;5132321;27;20414;-70
2022/08/01 07:07:29;;;;;;;1.13;1.02;;;19.80;99.90;;;;;;5133167;27;20023;-70
2022/08/01 07:09:55;;;;;;;0.80;0.80;;;19.80;99.90;;;;;;5131779;27;20463;-70
2022/08/01 07:12:20;;;;;;;3.40;1.15;;;19.80;99.90;;;;;;5132033;27;20110;-70
2022/08/01 07:14:46;;;;;;;2.88;1.10;;;19.80;99.90;;;;;;5130471;27;20180;-70
2022/08/01 07:17:11;;;;;;;1.70;0.90;;;20.50;99.90;;;;;;5132630;27;20034;-70
2022/08/01 07:19:37;;;;;;;1.20;0.85;;;20.00;99.90;;;;;;5124366;27;20035;-70
2022/08/01 07:22:03;;;;;;;2.42;1.05;;;20.20;99.90;;;;;;5122874;27;20035;-69
2022/08/01 07:24:29;;;;;;;2.00;0.68;;;20.60;99.90;;;;;;5130479;27;20028;-70
2022/08/01 07:26:54;;;;;;;1.05;0.80;;;20.30;99.90;;;;;;5132681;27;20058;-70
2022/08/01 07:29:29;;;;;;;1.77;1.10;;;20.40;99.90;;;;;;5121083;27;20168;-70
2022/08/01 07:31:57;;;;;;;4.88;0.90;;;20.50;99.90;;;;;;5126431;27;20423;-69
2022/08/01 07:34:24;;;;;;;1.65;0.95;;;21.20;99.90;;;;;;5122171;27;20030;-69
2022/08/01 07:36:50;;;;;;;1.23;0.85;;;20.60;99.90;;;;;;5122002;27;20016;-69
2022/08/01 07:39:16;;;;;;;2.50;1.25;;;21.30;99.90;;;;;;5129925;27;20053;-70
2022/08/01 07:41:42;;;;;;;1.67;1.02;;;20.50;99.90;;;;;;5130613;27;20484;-70
2022/08/01 07:44:07;;;;;;;2.97;0.90;;;20.40;99.90;;;;;;5121732;27;20049;-69
2022/08/01 07:46:33;;;;;;;1.60;1.15;;;20.60;99.90;;;;;;5122889;27;20036;-69
2022/08/01 07:48:58;;;;;;;1.63;1.10;;;20.40;99.90;;;;;;5125588;27;20503;-70
2022/08/01 07:51:24;;;;;;;0.98;0.77;;;20.30;99.90;;;;;;5127689;27;20036;-69
2022/08/01 07:53:49;;;;;;;1.45;1.00;;;20.30;99.90;;;;;;5130005;27;20019;-70
2022/08/01 07:56:15;;;;;;;4.05;1.10;;;20.30;99.90;;;;;;5131139;27;20142;-70
2022/08/01 07:58:40;;;;;;;4.00;1.30;;;20.40;99.90;;;;;;5122758;27;20028;-69
2022/08/01 08:01:06;;;;;;;1.58;0.95;;;20.50;99.90;;;;;;5122215;27;20041;-70
2022/08/01 08:03:32;;;;;;;1.40;0.88;;;20.40;99.90;;;;;;5120322;27;20122;-70
2022/08/01 08:05:57;;;;;;;1.63;1.20;;;20.50;99.90;;;;;;5119489;27;20034;-70
2022/08/01 08:08:23;;;;;;;3.53;1.40;;;20.50;99.90;;;;;;5127838;27;20062;-70
2022/08/01 08:10:49;;;;;;;2.50;1.17;;;20.70;99.90;;;;;;5129293;27;20023;-70
2022/08/01 08:13:15;;;;;;;2.83;1.30;;;20.70;99.90;;;;;;5129593;27;20042;-70
2022/08/01 08:15:40;;;;;;;2.17;0.82;;;20.70;99.90;;;;;;5129413;27;20050;-70
2022/08/01 08:18:06;;;;;;;1.90;1.00;;;20.80;99.90;;;;;;5131926;27;20072;-70
2022/08/01 08:20:31;;;;;;;2.40;1.17;;;20.80;99.90;;;;;;5112399;27;20495;-70
2022/08/01 08:22:58;;;;;;;1.63;0.90;;;20.70;99.90;;;;;;5131410;27;20185;-70
2022/08/01 08:25:24;;;;;;;1.38;1.27;;;20.80;99.90;;;;;;5127132;27;20031;-70
2022/08/01 08:27:50;;;;;;;2.05;0.80;;;20.90;99.90;;;;;;5131024;27;20035;-70
2022/08/01 08:30:16;;;;;;;3.63;0.90;;;20.80;99.90;;;;;;5123103;27;20476;-70
2022/08/01 08:32:42;;;;;;;2.28;0.98;;;21.20;99.90;;;;;;5112765;27;20411;-70
2022/08/01 08:35:08;;;;;;;2.25;1.23;;;22.20;99.90;;;;;;5117912;27;20038;-70
2022/08/01 08:37:35;;;;;;;1.00;0.90;;;21.00;99.90;;;;;;5125024;27;20027;-69
2022/08/01 08:40:01;;;;;;;1.60;1.20;;;21.50;99.90;;;;;;5125744;27;20130;-70
2022/08/01 08:42:26;;;;;;;2.63;1.02;;;21.10;99.90;;;;;;5112703;27;20049;-70
2022/08/01 08:44:54;;;;;;;1.27;1.00;;;21.30;99.90;;;;;;5118916;27;20464;-70
2022/08/01 08:47:21;;;;;;;1.38;0.80;;;22.30;99.90;;;;;;5121233;27;20486;-71
2022/08/01 08:49:50;;;;;;;1.85;1.30;;;21.60;99.90;;;;;;5127889;27;20030;-70
2022/08/01 08:52:17;;;;;;;2.03;0.95;;;21.70;99.90;;;;;;5121123;27;20055;-70
2022/08/01 08:54:44;;;;;;;2.03;1.05;;;21.90;99.90;;;;;;5125839;27;20371;-70
2022/08/01 08:57:12;;;;;;;2.17;1.20;;;23.00;99.90;;;;;;5124097;27;20027;-70
2022/08/01 08:59:39;;;;;;;2.17;1.27;;;21.90;99.90;;;;;;5123036;27;20023;-70
2022/08/01 09:02:05;;;;;;;3.42;1.35;;;22.00;99.90;;;;;;5130889;27;20495;-70
2022/08/01 09:04:31;;;;;;;3.00;1.30;;;22.10;99.90;;;;;;5119574;27;20131;-71
2022/08/01 09:06:56;;;;;;;2.03;1.15;;;22.00;99.90;;;;;;5129072;27;20522;-71
2022/08/01 09:09:23;;;;;;;3.53;1.77;;;22.00;99.90;;;;;;5121773;27;20035;-72
2022/08/01 09:11:49;;;;;;;2.35;0.90;;;22.00;99.90;;;;;;5121256;27;20047;-70
2022/08/01 09:14:26;;;;;;;3.15;1.27;;;21.60;99.90;;;;;;5115578;27;20059;-70
2022/08/01 09:17:12;;;;;;;3.25;1.30;;;21.40;99.90;;;;;;5121129;27;20348;-69
2022/08/01 09:19:51;;;;;;;4.05;1.40;;;20.70;99.90;;;;;;5124463;27;20088;-70
2022/08/01 09:22:22;;;;;;;5.82;1.67;;;19.60;99.90;;;;;;5126045;27;20079;-70
2022/08/01 09:25:08;;;;;;;4.20;1.67;;;19.40;99.90;;;;;;5116544;27;20130;-69
2022/08/01 09:27:34;;;;;;;2.80;1.30;;;19.20;99.90;;;;;;5119597;27;20486;-70
2022/08/01 09:30:26;;;;;;;2.13;1.30;;;18.90;99.90;;;;;;5129210;27;20023;-69
2022/08/01 09:32:56;;;;;;;1.70;1.20;;;18.90;99.90;;;;;;5125179;27;20031;-69
2022/08/01 09:35:31;;;;;;;6.15;1.85;;;18.80;99.90;;;;;;5129368;27;20023;-69
2022/08/01 09:38:14;;;;;;;3.55;1.55;;;18.80;99.90;;;;;;5130761;28;20023;-69
2022/08/01 09:40:47;;;;;;;4.00;1.67;;;18.80;99.90;;;;;;5122286;28;20020;-69
2022/08/01 09:43:12;;;;;;;3.30;2.15;;;19.40;99.90;;;;;;5116872;28;20046;-69
2022/08/01 09:45:38;;;;;;;2.65;1.85;;;18.90;99.90;;;;;;5121248;28;20460;-69
2022/08/01 09:48:08;;;;;;;2.03;1.40;;;19.00;99.90;;;;;;5129908;28;20027;-69
2022/08/01 09:50:44;;;;;;;2.80;1.73;;;19.00;99.90;;;;;;5129616;28;20512;-69
2022/08/01 09:53:10;;;;;;;2.92;1.92;;;18.90;99.90;;;;;;5128538;28;20023;-69
2022/08/01 09:55:39;;;;;;;4.55;2.67;;;18.90;99.90;;;;;;5126413;28;20034;-69
2022/08/01 09:58:06;;;;;;;3.78;2.65;;;18.90;99.90;;;;;;5129949;28;20038;-69
2022/08/01 10:00:33;;;;;;;4.75;3.78;;;19.40;99.90;;;;;;5121928;28;20019;-68
2022/08/01 10:03:00;;;;;;;6.20;3.72;;;19.00;99.90;;;;;;5110796;28;20031;-70
2022/08/01 10:05:33;;;;;;;5.75;3.70;;;19.00;99.90;;;;;;5119096;27;20023;-71
2022/08/01 10:08:04;;;;;;;5.63;3.95;;;19.00;99.90;;;;;;5124095;28;20027;-70
2022/08/01 10:10:31;;;;;;;4.20;3.80;;;19.00;99.90;;;;;;5126801;28;20023;-71
2022/08/01 10:12:58;;;;;;;6.20;3.85;;;18.90;99.90;;;;;;5129928;28;20030;-70
2022/08/01 10:15:24;;;;;;;7.32;3.95;;;19.00;99.90;;;;;;5127215;27;20106;-70
2022/08/01 10:17:54;;;;;;;8.02;4.20;;;19.10;99.90;;;;;;5130892;27;20023;-70
2022/08/01 10:20:22;;;;;;;9.95;3.67;;;19.10;99.90;;;;;;5122010;27;20044;-69
2022/08/01 10:22:49;;;;;;;9.52;4.50;;;19.90;99.90;;;;;;5127701;27;20031;-70
2022/08/01 10:25:17;;;;;;;9.90;4.88;;;19.50;99.90;;;;;;5121387;27;20046;-70
2022/08/01 10:27:48;;;;;;;8.18;4.93;;;19.70;99.90;;;;;;5132614;27;20019;-70
2022/08/01 10:30:15;;;;;;;6.68;3.92;;;20.00;99.90;;;;;;5131793;27;20047;-70
2022/08/01 10:32:42;;;;;;;7.55;4.38;;;20.10;99.90;;;;;;5131823;27;20445;-71
2022/08/01 10:35:09;;;;;;;6.75;4.72;;;21.20;99.90;;;;;;5128113;27;20026;-70
2022/08/01 10:37:35;;;;;;;5.70;3.55;;;20.40;99.90;;;;;;5129521;27;20023;-70
2022/08/01 10:40:01;;;;;;;9.68;3.85;;;20.30;99.90;;;;;;5132413;27;20494;-70
2022/08/01 10:42:27;;;;;;;7.05;4.03;;;20.80;99.90;;;;;;5131170;27;20448;-70
2022/08/01 10:44:54;;;;;;;6.50;3.05;;;20.80;99.90;;;;;;5125765;27;20028;-70
2022/08/01 10:47:38;;;;;;;7.35;3.45;;;20.90;99.90;;;;;;5129239;27;20031;-70
2022/08/01 10:50:36;;;;;;;10.15;4.50;;;21.90;99.90;;;;;;5130307;27;20028;-70
2022/08/01 10:53:12;;;;;;;6.80;3.28;;;21.10;99.90;;;;;;5111678;27;20046;-70
2022/08/01 10:56:01;;;;;;;11.20;3.53;;;21.10;99.90;;;;;;5131924;27;20054;-70
2022/08/01 10:58:37;;;;;;;5.35;2.80;;;20.90;99.90;;;;;;5126918;27;20505;-70
2022/08/01 11:01:15;;;;;;;8.15;2.92;;;21.10;99.90;;;;;;5120662;27;20040;-69
2022/08/01 11:03:42;;;;;;;4.82;2.92;;;21.20;99.90;;;;;;5120479;27;20023;-69
2022/08/01 11:06:19;;;;;;;5.50;3.42;;;21.30;99.90;;;;;;5124827;27;20020;-69
2022/08/01 11:08:53;;;;;;;20.13;4.75;;;21.50;99.90;;;;;;5130639;27;20063;-69
2022/08/01 11:11:20;;;;;;;6.47;2.80;;;21.50;99.90;;;;;;5131740;27;20018;-70
2022/08/01 11:14:01;;;;;;;6.53;2.28;;;21.70;99.90;;;;;;5131102;27;20051;-70
2022/08/01 11:16:33;;;;;;;3.13;2.40;;;21.80;99.90;;;;;;5124759;27;20433;-70
2022/08/01 11:18:58;;;;;;;9.65;2.80;;;21.90;99.90;;;;;;5127974;27;20019;-70
2022/08/01 11:21:52;;;;;;;5.35;2.67;;;22.10;99.90;;;;;;5120898;27;20096;-69
2022/08/01 11:24:45;;;;;;;4.63;2.55;;;22.00;99.90;;;;;;5128955;27;20399;-70
2022/08/01 11:27:17;;;;;;;5.57;2.08;;;22.10;99.90;;;;;;5126298;27;20019;-69
2022/08/01 11:29:42;;;;;;;5.03;2.47;;;21.90;99.90;;;;;;5131884;27;20380;-69
2022/08/01 11:32:24;;;;;;;6.25;2.53;;;22.10;99.90;;;;;;5127447;27;20031;-69
2022/08/01 11:34:56;;;;;;;7.68;3.08;;;22.10;99.90;;;;;;5126527;27;20053;-69
2022/08/01 11:37:27;;;;;;;6.72;2.53;;;22.30;99.90;;;;;;5121264;27;20035;-69
2022/08/01 11:40:18;;;;;;;9.50;2.92;;;21.00;99.90;;;;;;5126796;27;20110;-68
2022/08/01 11:42:44;;;;;;;6.70;2.33;;;22.60;99.90;;;;;;5115927;27;20383;-69
2022/08/01 11:45:09;;;;;;;4.93;2.50;;;22.40;99.90;;;;;;5127284;27;20031;-68
2022/08/01 11:47:49;;;;;;;5.30;2.00;;;22.30;99.90;;;;;;5126979;27;20046;-69
2022/08/01 11:50:34;;;;;;;4.88;2.05;;;22.40;99.90;;;;;;5127618;27;20031;-69
2022/08/01 11:53:07;;;;;;;5.15;2.30;;;22.30;99.90;;;;;;5123463;27;20080;-69
2022/08/01 11:55:34;;;;;;;6.68;2.28;;;22.30;99.90;;;;;;5130694;27;20076;-69
2022/08/01 11:58:09;;;;;;;3.50;1.98;;;22.20;99.90;;;;;;5125925;27;20053;-69
2022/08/01 12:00:34;;;;;;;6.55;2.50;;;22.20;99.90;;;;;;5132013;27;20364;-69
2022/08/01 12:03:05;;;;;;;3.63;1.90;;;22.00;99.90;;;;;;5131021;27;20140;-69
2022/08/01 12:05:33;;;;;;;7.68;2.88;;;22.00;99.90;;;;;;5111121;27;20031;-69
2022/08/01 12:08:00;;;;;;;4.25;1.77;;;21.90;99.90;;;;;;5130180;27;20023;-69
2022/08/01 12:10:31;;;;;;;4.85;2.22;;;21.80;99.90;;;;;;5131487;27;20041;-69
2022/08/01 12:13:01;;;;;;;4.85;1.75;;;22.00;99.90;;;;;;5131041;27;20027;-69
2022/08/01 12:15:34;;;;;;;7.25;1.95;;;22.00;99.90;;;;;;5126475;27;20023;-69
2022/08/01 12:18:02;;;;;;;6.78;1.95;;;22.20;99.90;;;;;;5130941;27;20023;-69
2022/08/01 12:20:30;;;;;;;4.50;1.80;;;22.10;99.90;;;;;;5129890;27;20031;-69
2022/08/01 12:22:57;;;;;;;4.75;2.15;;;22.40;99.90;;;;;;5131042;27;20035;-69
2022/08/01 12:25:23;;;;;;;4.90;2.10;;;22.40;99.90;;;;;;5126322;27;20019;-69
2022/08/01 12:27:49;;;;;;;5.28;1.50;;;22.50;99.90;;;;;;5126647;27;20387;-69
2022/08/01 12:30:17;;;;;;;5.57;1.38;;;22.70;99.90;;;;;;5127784;27;20030;-69
2022/08/01 12:32:45;;;;;;;8.65;1.85;;;23.00;99.70;;;;;;5123187;27;20022;-69
2022/08/01 12:35:14;;;;;;;4.63;2.22;;;23.00;99.30;;;;;;5128187;27;20348;-69
2022/08/01 12:37:45;;;;;;;4.90;1.90;;;23.30;99.10;;;;;;5126204;27;20069;-68
2022/08/01 12:40:17;;;;;;;4.53;1.70;;;23.20;99.00;;;;;;5122112;27;20011;-69
2022/08/01 12:42:45;;;;;;;3.65;1.55;;;23.10;97.80;;;;;;5125873;27;20039;-69
2022/08/01 12:45:14;;;;;;;5.95;1.50;;;23.30;98.90;;;;;;5125593;27;20099;-69
2022/08/01 12:47:41;;;;;;;2.97;1.10;;;23.20;98.60;;;;;;5128468;27;20037;-69
2022/08/01 12:50:10;;;;;;;3.67;1.30;;;23.40;98.10;;;;;;5126482;27;20023;-69